.
WxDataArchive / Data Records for 2011-02-11
2011-02-10 February 2011 2011-02-12

Data Records for Friday, 11 February 2011

Time	Temp	Chill	HIndex	Humid	Dewpt	 Wind 	HiWind	WindDir	Rain 	Barom 
-----	----	-----	------	-----	-----	------	------	-------	-----	----- 
00:00	6.3	6.3	6.3	66	-2.6	0	1	248	0.00	30.095 
00:05	6.7	6.7	6.7	66	-2.2	0	1	248	0.00	30.095 
00:10	6.9	6.9	6.9	66	-2.0	0	0	---	0.00	30.095 
00:15	7.0	7.0	7.0	66	-1.9	0	1	248	0.00	30.088 
00:20	7.4	7.4	7.4	66	-1.5	0	1	248	0.00	30.088 
00:25	7.7	7.7	7.7	66	-1.3	0	1	248	0.00	30.088 
00:30	8.3	8.3	8.3	66	-0.7	0	1	248	0.00	30.086 
00:35	8.4	8.4	8.4	66	-0.6	0	1	248	0.00	30.086 
00:40	8.8	8.8	8.8	66	-0.2	0	1	248	0.00	30.086 
00:45	9.0	9.0	9.0	66	-0.0	0	2	248	0.00	30.085 
00:50	9.3	9.3	9.3	65	-0.0	0	2	248	0.00	30.085 
00:55	9.7	9.7	9.7	65	0.3	0	2	248	0.00	30.085 
01:00	10.0	10.0	10.0	65	0.6	1	4	225	0.00	30.081 
01:05	10.4	10.4	10.4	65	1.0	1	3	225	0.00	30.081 
01:10	10.5	10.5	10.5	65	1.1	1	2	225	0.00	30.081 
01:15	10.7	10.7	10.7	65	1.3	1	3	225	0.00	30.080 
01:20	10.9	10.9	10.9	65	1.5	1	4	248	0.00	30.080 
01:25	11.1	11.1	11.1	65	1.7	1	3	248	0.00	30.080 
01:30	11.2	11.2	11.2	65	1.8	1	3	248	0.00	30.078 
01:35	11.4	11.4	11.4	65	2.0	1	4	248	0.00	30.078 
01:40	11.6	11.6	11.6	65	2.1	0	2	248	0.00	30.078 
01:45	11.7	11.7	11.7	66	2.6	1	3	248	0.00	30.073 
01:50	11.9	11.9	11.9	66	2.8	0	2	248	0.00	30.073 
01:55	11.9	11.9	11.9	66	2.8	0	2	248	0.00	30.073 
02:00	11.9	11.9	11.9	66	2.8	0	3	248	0.00	30.077 
02:05	12.1	12.1	12.1	66	3.0	0	3	248	0.00	30.077 
02:10	12.1	12.1	12.1	66	3.0	0	3	248	0.00	30.077 
02:15	12.3	12.3	12.3	67	3.5	0	1	248	0.00	30.077 
02:20	12.3	12.3	12.3	67	3.5	0	1	248	0.00	30.077 
02:25	12.3	12.3	12.3	67	3.5	0	2	248	0.00	30.077 
02:30	12.4	12.4	12.4	67	3.6	0	2	248	0.00	30.078 
02:35	12.4	12.4	12.4	67	3.6	0	1	248	0.00	30.078 
02:40	12.6	12.6	12.6	68	4.1	0	2	248	0.00	30.078 
02:45	12.8	12.8	12.8	68	4.3	0	1	248	0.00	30.076 
02:50	12.9	12.9	12.9	68	4.4	0	1	248	0.00	30.076 
02:55	12.9	12.9	12.9	68	4.4	0	1	248	0.00	30.076 
03:00	12.9	12.9	12.9	68	4.4	0	3	248	0.00	30.076 
03:05	13.1	13.1	13.1	68	4.6	0	1	248	0.00	30.076 
03:10	13.3	13.3	13.3	68	4.7	0	2	248	0.00	30.076 
03:15	13.3	13.3	13.3	68	4.7	0	1	248	0.00	30.073 
03:20	13.5	13.5	13.5	68	4.9	0	2	248	0.00	30.073 
03:25	13.5	13.5	13.5	68	4.9	0	1	248	0.00	30.073 
03:30	13.6	13.6	13.6	68	5.0	0	0	---	0.00	30.069 
03:35	13.5	13.5	13.5	68	4.9	0	1	248	0.00	30.069 
03:40	13.5	13.5	13.5	68	4.9	0	1	248	0.00	30.069 
03:45	13.5	13.5	13.5	68	4.9	0	0	---	0.00	30.063 
03:50	13.5	13.5	13.5	69	5.3	0	0	---	0.00	30.063 
03:55	13.6	13.6	13.6	69	5.4	0	1	248	0.00	30.063 
04:00	13.6	13.6	13.6	69	5.4	0	1	248	0.00	30.061 
04:05	13.5	13.5	13.5	69	5.3	0	0	---	0.00	30.061 
04:10	13.5	13.5	13.5	69	5.3	0	1	248	0.00	30.061 
04:15	13.6	13.6	13.6	69	5.4	0	1	248	0.00	30.062 
04:20	13.8	13.8	13.8	70	5.9	0	2	248	0.00	30.062 
04:25	14.1	14.1	14.1	69	5.8	0	1	248	0.00	30.062 
04:30	14.1	14.1	14.1	69	5.8	0	1	248	0.00	30.066 
04:35	14.1	14.1	14.1	69	5.8	0	1	248	0.00	30.066 
04:40	14.0	14.0	14.0	69	5.7	0	1	248	0.00	30.066 
04:45	14.0	14.0	14.0	69	5.7	0	2	248	0.00	30.075 
04:50	13.8	13.8	13.8	69	5.5	0	1	248	0.00	30.075 
04:55	13.8	13.8	13.8	70	5.9	0	1	248	0.00	30.075 
05:00	13.8	13.8	13.8	70	5.9	0	2	248	0.00	30.077 
05:05	14.0	14.0	14.0	70	6.0	1	3	248	0.00	30.077 
05:10	14.1	14.1	14.1	70	6.1	1	3	248	0.00	30.077 
05:15	14.1	14.1	14.1	70	6.1	1	4	248	0.00	30.082 
05:20	14.1	14.1	14.1	70	6.1	1	3	248	0.00	30.082 
05:25	14.1	14.1	14.1	70	6.1	1	4	248	0.00	30.082 
05:30	14.1	14.1	14.1	70	6.1	1	4	248	0.00	30.086 
05:35	14.3	14.3	14.3	70	6.3	1	4	248	0.00	30.086 
05:40	14.3	14.3	14.3	69	6.0	1	5	248	0.00	30.086 
05:45	14.3	14.3	14.3	69	6.0	1	3	248	0.00	30.089 
05:50	14.4	14.4	14.4	69	6.1	1	3	248	0.00	30.089 
05:55	14.4	14.4	14.4	69	6.1	1	2	248	0.00	30.089 
06:00	14.6	14.6	14.6	69	6.3	1	6	248	0.00	30.093 
06:05	14.6	14.6	14.6	69	6.3	1	7	248	0.00	30.093 
06:10	14.8	14.8	14.8	68	6.2	1	6	248	0.00	30.093 
06:15	14.9	14.9	14.9	68	6.3	1	4	248	0.00	30.097 
06:20	15.1	15.1	15.1	68	6.5	1	4	225	0.00	30.097 
06:25	15.1	15.1	15.1	68	6.5	1	3	248	0.00	30.097 
06:30	15.1	15.1	15.1	68	6.5	1	5	248	0.00	30.097 
06:35	15.1	15.1	15.1	68	6.5	2	4	248	0.00	30.097 
06:40	15.1	15.1	15.1	68	6.5	1	4	248	0.00	30.097 
06:45	15.2	15.2	15.2	67	6.2	1	4	248	0.00	30.096 
06:50	15.2	15.2	15.2	67	6.2	1	4	225	0.00	30.096 
06:55	15.4	15.4	15.4	67	6.4	2	7	270	0.00	30.096 
07:00	15.6	15.6	15.6	66	6.3	2	5	248	0.00	30.097 
07:05	15.9	15.9	15.9	66	6.6	3	7	248	0.00	30.097 
07:10	15.9	15.9	15.9	65	6.2	2	7	248	0.00	30.097 
07:15	16.1	16.1	16.1	65	6.4	2	5	248	0.00	30.100 
07:20	16.1	16.1	16.1	65	6.4	2	7	248	0.00	30.100 
07:25	16.1	16.1	16.1	65	6.4	2	5	248	0.00	30.100 
07:30	16.1	16.1	16.1	65	6.4	1	5	225	0.00	30.101 
07:35	16.1	16.1	16.1	65	6.4	2	5	248	0.00	30.101 
07:40	16.1	16.1	16.1	65	6.4	1	4	248	0.00	30.101 
07:45	16.2	16.2	16.2	65	6.5	2	9	248	0.00	30.106 
07:50	16.2	16.2	16.2	64	6.2	1	4	248	0.00	30.106 
07:55	16.2	16.2	16.2	64	6.2	2	5	248	0.00	30.106 
08:00	16.2	16.2	16.2	64	6.2	1	4	248	0.00	30.105 
08:05	16.2	16.2	16.2	64	6.2	1	3	248	0.00	30.105 
08:10	16.2	16.2	16.2	64	6.2	1	3	248	0.00	30.105 
08:15	16.2	16.2	16.2	64	6.2	2	5	248	0.00	30.110 
08:20	16.2	16.2	16.2	64	6.2	1	5	248	0.00	30.110 
08:25	16.2	16.2	16.2	64	6.2	1	4	248	0.00	30.110 
08:30	16.2	16.2	16.2	64	6.2	1	3	225	0.00	30.112 
08:35	16.2	16.2	16.2	64	6.2	1	3	225	0.00	30.112 
08:40	16.2	16.2	16.2	64	6.2	0	2	248	0.00	30.112 
08:45	16.2	16.2	16.2	64	6.2	1	3	248	0.00	30.113 
08:50	16.2	16.2	16.2	63	5.9	1	5	248	0.00	30.113 
08:55	16.4	16.4	16.4	63	6.0	1	4	248	0.00	30.113 
09:00	16.5	16.5	16.5	63	6.1	1	3	248	0.00	30.115 
09:05	16.9	16.9	16.9	63	6.5	0	3	248	0.00	30.115 
09:10	17.3	17.3	17.3	62	6.5	1	4	248	0.00	30.115 
09:15	17.8	17.8	17.8	62	7.0	2	6	248	0.00	30.116 
09:20	18.1	18.1	18.1	62	7.3	2	6	225	0.00	30.116 
09:25	18.3	18.3	18.3	61	7.1	2	7	248	0.00	30.116 
09:30	18.4	18.4	18.4	61	7.2	1	4	248	0.00	30.116 
09:35	18.6	18.6	18.6	61	7.4	2	6	248	0.00	30.116 
09:40	18.8	18.8	18.8	61	7.6	1	4	248	0.00	30.116 
09:45	19.1	19.1	19.1	61	7.9	1	4	248	0.00	30.120 
09:50	19.1	19.1	19.1	60	7.5	2	4	248	0.00	30.120 
09:55	19.1	19.1	19.1	59	7.2	2	7	248	0.00	30.120 
10:00	18.9	18.9	18.9	60	7.3	2	7	225	0.00	30.122 
10:05	18.9	18.9	18.9	60	7.3	2	5	248	0.00	30.122 
10:10	19.2	19.2	19.2	60	7.6	1	3	248	0.00	30.122 
10:15	19.5	19.5	19.5	59	7.5	1	4	248	0.00	30.120 
10:20	19.9	19.9	19.9	59	7.9	1	4	270	0.00	30.120 
10:25	20.3	20.3	20.3	58	7.9	1	5	248	0.00	30.120 
10:30	20.8	20.8	20.8	57	8.0	1	3	248	0.00	30.111 
10:35	21.1	21.1	21.1	56	7.9	1	4	248	0.00	30.111 
10:40	21.6	21.6	21.6	55	8.0	2	5	248	0.00	30.111 
10:45	22.1	22.1	22.1	54	8.0	2	5	248	0.00	30.109 
10:50	22.4	22.4	22.4	54	8.3	2	7	248	0.00	30.109 
10:55	22.9	22.9	22.9	53	8.4	2	4	248	0.00	30.109 
11:00	23.0	23.0	23.0	52	8.0	2	5	248	0.00	30.106 
11:05	23.3	23.3	23.3	52	8.3	1	5	248	0.00	30.106 
11:10	23.3	23.3	23.3	52	8.3	1	5	248	0.00	30.106 
11:15	23.2	23.2	23.2	52	8.2	2	7	270	0.00	30.109 
11:20	23.0	23.0	23.0	52	8.0	1	5	248	0.00	30.109 
11:25	23.0	23.0	23.0	52	8.0	2	4	248	0.00	30.109 
11:30	23.0	23.0	23.0	52	8.0	2	6	248	0.00	30.107 
11:35	23.5	23.5	23.5	52	8.5	1	5	248	0.00	30.107 
11:40	23.2	23.2	23.2	52	8.2	2	7	225	0.00	30.107 
11:45	23.2	23.2	23.2	52	8.2	2	7	248	0.00	30.109 
11:50	23.2	23.2	23.2	53	8.6	2	5	248	0.00	30.109 
11:55	23.5	23.5	23.5	53	8.9	2	5	248	0.00	30.109 
12:00	23.6	23.6	23.6	54	9.4	1	5	90	0.00	30.106 
12:05	23.9	23.9	23.9	53	9.3	2	5	248	0.00	30.106 
12:10	24.1	24.1	24.1	52	9.1	2	9	248	0.00	30.106 
12:15	24.5	24.5	24.5	52	9.4	1	5	248	0.00	30.099 
12:20	24.4	24.4	24.4	52	9.3	1	4	248	0.00	30.099 
12:25	24.5	24.5	24.5	52	9.4	2	6	248	0.00	30.099 
12:30	24.8	24.8	24.8	51	9.3	2	7	248	0.00	30.092 
12:35	25.1	25.1	25.1	51	9.5	1	5	248	0.00	30.092 
12:40	25.3	25.3	25.3	51	9.7	1	4	248	0.00	30.092 
12:45	25.3	25.3	25.3	50	9.3	2	5	248	0.00	30.086 
12:50	25.0	25.0	25.0	50	9.0	3	8	248	0.00	30.086 
12:55	25.1	25.1	25.1	51	9.5	1	7	225	0.00	30.086 
13:00	25.4	25.4	25.4	50	9.4	2	5	270	0.00	30.079 
13:05	25.3	25.3	25.3	50	9.3	3	7	248	0.00	30.079 
13:10	25.3	25.3	25.3	50	9.3	2	6	248	0.00	30.079 
13:15	25.4	25.4	25.4	50	9.4	2	6	248	0.00	30.067 
13:20	25.6	25.6	25.6	49	9.1	2	5	248	0.00	30.067 
13:25	25.7	25.7	25.7	50	9.7	1	4	248	0.00	30.067 
13:30	26.0	26.0	26.0	51	10.4	1	5	248	0.00	30.057 
13:35	26.1	26.1	26.1	49	9.6	1	6	202	0.00	30.057 
13:40	26.0	26.0	26.0	48	9.0	2	5	248	0.00	30.057 
13:45	26.0	26.0	26.0	49	9.5	2	5	248	0.00	30.049 
13:50	26.3	26.3	26.3	49	9.8	1	4	248	0.00	30.049 
13:55	26.4	26.4	26.4	49	9.9	1	3	270	0.00	30.049 
14:00	26.6	26.6	26.6	49	10.0	1	4	248	0.00	30.047 
14:05	26.1	26.1	26.1	48	9.1	3	10	248	0.00	30.047 
14:10	25.7	25.7	25.7	49	9.2	3	10	248	0.00	30.047 
14:15	25.7	25.7	25.7	50	9.7	2	7	225	0.00	30.045 
14:20	25.7	25.7	25.7	48	8.8	3	7	248	0.00	30.045 
14:25	25.6	25.6	25.6	49	9.1	2	7	248	0.00	30.045 
14:30	25.7	25.7	25.7	49	9.2	2	9	248	0.00	30.039 
14:35	25.7	25.7	25.7	49	9.2	2	6	225	0.00	30.039 
14:40	25.7	25.7	25.7	48	8.8	3	9	225	0.00	30.039 
14:45	25.6	25.6	25.6	50	9.6	2	6	248	0.00	30.032 
14:50	25.6	25.6	25.6	49	9.1	3	7	248	0.00	30.032 
14:55	25.6	25.6	25.6	49	9.1	3	6	248	0.00	30.032 
15:00	25.7	25.7	25.7	49	9.2	2	6	248	0.00	30.031 
15:05	25.7	25.7	25.7	50	9.7	2	7	270	0.00	30.031 
15:10	25.7	25.7	25.7	49	9.2	2	8	270	0.00	30.031 
15:15	25.7	25.7	25.7	50	9.7	2	7	248	0.00	30.025 
15:20	25.6	25.6	25.6	49	9.1	3	10	270	0.00	30.025 
15:25	25.6	25.6	25.6	49	9.1	3	9	248	0.00	30.025 
15:30	25.4	25.4	25.4	50	9.4	2	6	248	0.00	30.024 
15:35	25.4	25.4	25.4	50	9.4	2	7	248	0.00	30.024 
15:40	25.4	25.4	25.4	50	9.4	2	5	248	0.00	30.024 
15:45	25.6	25.6	25.6	50	9.6	2	6	248	0.00	30.016 
15:50	25.6	25.6	25.6	50	9.6	2	7	248	0.00	30.016 
15:55	25.6	25.6	25.6	51	10.0	3	7	248	0.00	30.016 
16:00	25.4	25.4	25.4	51	9.8	3	10	248	0.00	30.018 
16:05	25.4	25.4	25.4	51	9.8	3	6	248	0.00	30.018 
16:10	25.6	25.6	25.6	52	10.4	2	6	248	0.00	30.018 
16:15	25.6	25.6	25.6	52	10.4	2	7	248	0.00	30.018 
16:20	25.7	25.7	25.7	52	10.5	2	6	248	0.00	30.018 
16:25	25.7	25.7	25.7	52	10.5	2	9	248	0.00	30.018 
16:30	25.8	25.8	25.8	53	11.1	1	4	225	0.00	30.015 
16:35	26.0	26.0	26.0	53	11.2	1	3	225	0.00	30.015 
16:40	26.0	26.0	26.0	53	11.2	1	3	248	0.00	30.015 
16:45	26.0	26.0	26.0	54	11.7	1	4	225	0.00	30.013 
16:50	26.0	26.0	26.0	54	11.7	1	4	248	0.00	30.013 
16:55	25.8	25.8	25.8	54	11.5	2	5	270	0.00	30.013 
17:00	25.8	25.8	25.8	54	11.5	2	5	248	0.00	30.005 
17:05	25.8	25.8	25.8	54	11.5	2	7	248	0.00	30.005 
17:10	25.7	25.7	25.7	54	11.4	2	5	248	0.00	30.005 
17:15	25.7	25.7	25.7	55	11.8	1	4	248	0.00	30.004 
17:20	25.7	25.7	25.7	55	11.8	1	3	248	0.00	30.004 
17:25	25.6	25.6	25.6	55	11.7	2	5	248	0.00	30.004 
17:30	25.4	25.4	25.4	56	11.9	1	4	270	0.00	29.996 
17:35	25.4	25.4	25.4	56	11.9	1	7	248	0.00	29.996 
17:40	25.4	25.4	25.4	57	12.3	1	2	248	0.00	29.996 
17:45	25.4	25.4	25.4	57	12.3	1	3	248	0.00	29.998 
17:50	25.4	25.4	25.4	57	12.3	1	6	225	0.00	29.998 
17:55	25.4	25.4	25.4	57	12.3	1	4	248	0.00	29.998 
18:00	25.4	25.4	25.4	58	12.7	1	4	248	0.00	29.989 
18:05	25.4	25.4	25.4	58	12.7	1	5	248	0.00	29.989 
18:10	25.4	25.4	25.4	58	12.7	1	4	270	0.00	29.989 
18:15	25.6	25.6	25.6	58	12.9	1	4	248	0.00	29.983 
18:20	25.6	25.6	25.6	58	12.9	2	4	248	0.00	29.983 
18:25	25.6	25.6	25.6	59	13.3	1	3	248	0.00	29.983 
18:30	25.7	25.7	25.7	58	13.0	1	3	248	0.00	29.984 
18:35	25.7	25.7	25.7	58	13.0	1	5	248	0.00	29.984 
18:40	25.8	25.8	25.8	58	13.1	1	6	248	0.00	29.984 
18:45	26.0	26.0	26.0	58	13.3	1	4	248	0.00	29.984 
18:50	26.1	26.1	26.1	58	13.4	2	7	270	0.00	29.984 
18:55	26.3	26.3	26.3	57	13.2	2	5	270	0.00	29.984 
19:00	26.4	26.4	26.4	57	13.3	2	4	248	0.00	29.983 
19:05	26.6	26.6	26.6	57	13.4	2	6	248	0.00	29.983 
19:10	26.6	26.6	26.6	57	13.4	2	5	248	0.00	29.983 
19:15	26.7	26.7	26.7	56	13.1	3	6	248	0.00	29.981 
19:20	26.7	26.7	26.7	57	13.5	1	4	270	0.00	29.981 
19:25	26.9	26.9	26.9	57	13.7	3	9	248	0.00	29.981 
19:30	26.9	26.9	26.9	57	13.7	2	6	292	0.00	29.981 
19:35	27.0	27.0	27.0	57	13.8	2	5	225	0.00	29.981 
19:40	27.0	27.0	27.0	57	13.8	3	9	248	0.00	29.981 
19:45	27.2	27.2	27.2	57	14.0	2	5	248	0.00	29.981 
19:50	27.2	27.2	27.2	57	14.0	2	7	248	0.00	29.981 
19:55	27.2	27.2	27.2	57	14.0	2	6	248	0.00	29.981 
20:00	27.3	27.3	27.3	57	14.1	2	7	225	0.00	29.980 
20:05	27.3	27.3	27.3	59	14.9	2	6	248	0.00	29.980 
20:10	27.5	27.5	27.5	58	14.7	2	5	248	0.00	29.980 
20:15	27.5	27.5	27.5	58	14.7	1	6	248	0.00	29.974 
20:20	27.6	27.6	27.6	58	14.8	3	7	225	0.00	29.974 
20:25	27.6	27.6	27.6	58	14.8	3	10	248	0.00	29.974 
20:30	27.8	27.8	27.8	58	15.0	3	9	248	0.00	29.966 
20:35	27.9	27.9	27.9	57	14.7	3	9	248	0.00	29.966 
20:40	27.9	27.9	27.9	57	14.7	3	7	248	0.00	29.966 
20:45	28.1	28.1	28.1	58	15.3	3	6	248	0.00	29.971 
20:50	28.2	23.7	28.2	57	14.9	4	11	248	0.00	29.971 
20:55	28.4	28.4	28.4	58	15.5	3	9	248	0.00	29.971 
21:00	28.4	22.8	28.4	58	15.5	5	12	248	0.00	29.975 
21:05	28.4	28.4	28.4	58	15.5	3	9	248	0.00	29.975 
21:10	28.4	28.4	28.4	58	15.5	3	7	248	0.00	29.975 
21:15	28.4	28.4	28.4	58	15.5	3	6	248	0.00	29.965 
21:20	28.4	28.4	28.4	58	15.5	3	9	248	0.00	29.965 
21:25	28.5	28.5	28.5	58	15.6	3	7	248	0.00	29.965 
21:30	28.5	28.5	28.5	58	15.6	3	7	248	0.00	29.963 
21:35	28.7	24.3	28.7	58	15.8	4	7	248	0.00	29.963 
21:40	28.7	24.3	28.7	58	15.8	4	11	248	0.00	29.963 
21:45	28.8	28.8	28.8	58	15.9	3	10	248	0.00	29.960 
21:50	28.8	28.8	28.8	58	15.9	3	7	248	0.00	29.960 
21:55	28.8	28.8	28.8	58	15.9	3	9	248	0.00	29.960 
22:00	29.0	23.6	29.0	58	16.1	5	14	248	0.00	29.959 
22:05	29.0	24.6	29.0	58	16.1	4	12	248	0.00	29.959 
22:10	29.0	29.0	29.0	58	16.1	3	10	248	0.00	29.959 
22:15	29.1	24.7	29.1	59	16.6	4	10	248	0.00	29.954 
22:20	29.1	29.1	29.1	59	16.6	3	6	248	0.00	29.954 
22:25	29.1	29.1	29.1	59	16.6	2	5	248	0.00	29.954 
22:30	29.1	29.1	29.1	59	16.6	3	7	248	0.00	29.954 
22:35	29.3	25.0	29.3	59	16.8	4	10	248	0.00	29.954 
22:40	29.3	29.3	29.3	60	17.2	2	7	248	0.00	29.954 
22:45	29.3	29.3	29.3	60	17.2	3	7	248	0.00	29.944 
22:50	29.3	29.3	29.3	60	17.2	3	10	225	0.00	29.944 
22:55	29.4	29.4	29.4	60	17.3	3	7	248	0.00	29.944 
23:00	29.4	29.4	29.4	60	17.3	3	7	270	0.00	29.946 
23:05	29.4	29.4	29.4	60	17.3	2	6	248	0.00	29.946 
23:10	29.5	29.5	29.5	60	17.3	3	6	248	0.00	29.946 
23:15	29.5	29.5	29.5	61	17.7	3	7	248	0.00	29.942 
23:20	29.5	29.5	29.5	61	17.7	2	5	248	0.00	29.942 
23:25	29.4	29.4	29.4	61	17.6	2	7	248	0.00	29.942 
23:30	29.5	29.5	29.5	61	17.7	3	7	248	0.00	29.941 
23:35	29.5	29.5	29.5	61	17.7	3	9	248	0.00	29.941 
23:40	29.5	29.5	29.5	62	18.1	2	9	248	0.00	29.941 
23:45	29.5	29.5	29.5	62	18.1	2	4	248	0.00	29.932 
23:50	29.7	29.7	29.7	62	18.3	3	9	248	0.00	29.932 
23:55	29.7	29.7	29.7	62	18.3	2	6	248	0.00	29.932 

CoCoRaHS
IN-AL-39
A2 Web Hosting
Creative Commons License
GoDaddy
search engine by freefind advanced

loaded 2018-11-13 21:59:19 • last modified 2010-11-18 10:43:29
Privacy PolicyDisclaimer
• wx.awcolley.com is powered by PmWiki v.2002016 •
• all content (unless otherwise noted) © 2018 A W Colley